Time;durP1;ratioP1;P1;durP2;ratioP2;P2;SDS_P1;SDS_P2;PMS_P1;PMS_P2;Temp;Humidity;BMP_temperature;BMP_pressure;BME280_temperature;BME280_humidity;BME280_pressure;Samples;Min_cycle;Max_cycle;Signal;HPM_P1;HPM_P2
2022/08/28 00:01:10;;;;;;;1.20;1.13;;;22.70;67.40;;;;;;5060553;28;20181;-73
2022/08/28 00:03:36;;;;;;;1.20;1.10;;;22.80;67.00;;;;;;5050061;28;20907;-74
2022/08/28 00:06:02;;;;;;;1.20;1.10;;;19.50;62.60;;;;;;5047005;28;20445;-75
2022/08/28 00:08:29;;;;;;;1.20;1.10;;;22.80;66.50;;;;;;5051787;28;20208;-74
2022/08/28 00:10:55;;;;;;;1.20;1.10;;;22.90;66.30;;;;;;5054075;28;20188;-74
2022/08/28 00:13:24;;;;;;;1.20;1.20;;;22.90;65.80;;;;;;5062238;28;20423;-75
2022/08/28 00:15:57;;;;;;;1.20;1.20;;;23.00;66.50;;;;;;5071222;28;20404;-74
2022/08/28 00:18:22;;;;;;;1.23;1.20;;;23.00;66.20;;;;;;5064115;28;20541;-74
2022/08/28 00:20:49;;;;;;;1.20;1.20;;;22.40;70.20;;;;;;5056825;28;20475;-72
2022/08/28 00:23:15;;;;;;;1.20;1.20;;;22.20;73.80;;;;;;5076849;28;20189;-72
2022/08/28 00:25:41;;;;;;;1.20;1.10;;;22.50;71.40;;;;;;5060037;28;20799;-72
2022/08/28 00:28:08;;;;;;;1.20;1.20;;;22.80;69.70;;;;;;5053501;28;20196;-72
2022/08/28 00:30:46;;;;;;;1.30;1.20;;;22.80;68.50;;;;;;5055518;28;20243;-72
2022/08/28 00:33:21;;;;;;;1.23;1.20;;;22.90;67.70;;;;;;5059360;28;20434;-73
2022/08/28 00:35:48;;;;;;;1.20;1.10;;;23.00;66.90;;;;;;5059042;28;20781;-72
2022/08/28 00:38:17;;;;;;;1.20;1.10;;;23.00;67.10;;;;;;5064756;28;20491;-75
2022/08/28 00:40:44;;;;;;;1.20;1.20;;;22.90;67.10;;;;;;5058251;28;20526;-73
2022/08/28 00:43:20;;;;;;;1.20;1.17;;;22.90;68.10;;;;;;5055793;28;20941;-73
2022/08/28 00:45:46;;;;;;;1.20;1.13;;;22.80;68.20;;;;;;5056532;28;20478;-72
2022/08/28 00:48:12;;;;;;;1.20;1.10;;;22.80;69.00;;;;;;5062564;28;20632;-72
2022/08/28 00:53:23;;;;;;;1.20;1.10;;;23.00;67.50;;;;;;5055870;28;20664;-72
2022/08/28 00:55:49;;;;;;;1.20;1.20;;;23.20;65.40;;;;;;5057073;28;20431;-72
2022/08/28 00:58:16;;;;;;;1.20;1.10;;;23.40;64.40;;;;;;5060316;28;20429;-72
2022/08/28 01:00:42;;;;;;;1.20;1.20;;;23.40;65.20;;;;;;5066652;28;20640;-72
2022/08/28 01:03:08;;;;;;;1.20;1.20;;;23.30;65.20;;;;;;5062020;28;20414;-72
2022/08/28 01:05:35;;;;;;;1.20;1.07;;;23.40;64.50;;;;;;5070906;28;20418;-74
2022/08/28 01:08:03;;;;;;;1.20;1.10;;;23.40;64.60;;;;;;5052086;28;20223;-75
2022/08/28 01:10:31;;;;;;;1.20;1.10;;;23.20;65.60;;;;;;5061965;28;20467;-75
2022/08/28 01:12:58;;;;;;;1.20;1.20;;;23.00;66.60;;;;;;5070304;28;20413;-75
2022/08/28 01:15:28;;;;;;;1.20;1.10;;;22.60;70.60;;;;;;5058100;28;20460;-75
2022/08/28 01:17:58;;;;;;;1.20;1.13;;;22.30;72.90;;;;;;5057304;28;20946;-75
2022/08/28 01:20:30;;;;;;;1.20;1.10;;;21.80;78.00;;;;;;5050234;28;20420;-74
2022/08/28 01:23:34;;;;;;;1.20;1.20;;;22.30;78.10;;;;;;5056437;28;20447;-73
2022/08/28 01:25:59;;;;;;;1.20;1.10;;;22.00;78.00;;;;;;5014033;28;20493;-74
2022/08/28 01:28:25;;;;;;;1.20;1.10;;;22.50;74.10;;;;;;5061166;28;20458;-73
2022/08/28 01:30:50;;;;;;;1.20;1.20;;;22.80;71.30;;;;;;5054403;28;20718;-74
2022/08/28 01:33:18;;;;;;;1.20;1.20;;;22.90;69.60;;;;;;5060480;28;20178;-73
2022/08/28 01:35:46;;;;;;;1.23;1.20;;;22.90;69.00;;;;;;5069003;28;20183;-74
2022/08/28 01:38:13;;;;;;;1.20;1.13;;;23.00;69.40;;;;;;5054376;28;20452;-73
2022/08/28 01:40:43;;;;;;;1.20;1.20;;;23.10;69.10;;;;;;5062148;28;20436;-74
2022/08/28 01:43:21;;;;;;;1.20;1.10;;;23.10;68.10;;;;;;5055386;28;20431;-73
2022/08/28 01:45:51;;;;;;;1.20;1.20;;;23.30;65.60;;;;;;5053785;28;20470;-74
2022/08/28 01:48:20;;;;;;;1.20;1.17;;;23.30;65.30;;;;;;5065517;28;20461;-73
2022/08/28 01:50:46;;;;;;;1.20;1.20;;;23.20;67.00;;;;;;5066068;28;20463;-72
2022/08/28 01:53:14;;;;;;;1.20;1.20;;;23.30;65.60;;;;;;5063355;28;20409;-73
2022/08/28 01:55:40;;;;;;;1.20;1.10;;;23.40;66.20;;;;;;5073869;28;20925;-73
2022/08/28 01:58:07;;;;;;;1.20;1.10;;;23.50;64.20;;;;;;5073654;28;20984;-73
2022/08/28 02:00:33;;;;;;;1.20;1.20;;;23.50;63.80;;;;;;5064964;28;20468;-74
2022/08/28 02:02:59;;;;;;;1.20;1.20;;;23.50;63.70;;;;;;5057472;28;20456;-74
2022/08/28 02:05:29;;;;;;;1.20;1.20;;;23.60;62.40;;;;;;5065106;28;20776;-75
2022/08/28 02:07:56;;;;;;;1.20;1.10;;;23.50;63.30;;;;;;5073892;28;20478;-76
2022/08/28 02:10:24;;;;;;;1.20;1.20;;;23.40;64.50;;;;;;5073232;28;20774;-76
2022/08/28 02:12:51;;;;;;;1.20;1.20;;;23.40;64.60;;;;;;5060857;28;20429;-76
2022/08/28 02:15:18;;;;;;;1.20;1.10;;;23.30;65.10;;;;;;5057891;28;20804;-76
2022/08/28 02:17:44;;;;;;;1.20;1.10;;;23.10;64.60;;;;;;5060549;28;20437;-76
2022/08/28 02:20:10;;;;;;;1.20;1.10;;;23.00;65.90;;;;;;5053577;28;20416;-76
2022/08/28 02:22:35;;;;;;;1.20;1.10;;;23.10;65.40;;;;;;5052818;28;20182;-76
2022/08/28 02:25:02;;;;;;;1.20;1.10;;;23.10;66.70;;;;;;5052884;28;20178;-76
2022/08/28 02:27:28;;;;;;;1.20;1.17;;;23.00;67.50;;;;;;5060448;28;20192;-75
2022/08/28 02:29:54;;;;;;;1.20;1.00;;;22.90;67.10;;;;;;5061493;28;20447;-75
2022/08/28 02:32:20;;;;;;;1.20;1.10;;;22.80;68.70;;;;;;5071760;28;20544;-76
2022/08/28 02:34:46;;;;;;;1.20;1.10;;;22.90;67.30;;;;;;5052932;28;20538;-76
2022/08/28 02:37:12;;;;;;;1.20;1.20;;;23.20;64.90;;;;;;5061426;28;20544;-76
2022/08/28 02:39:38;;;;;;;1.20;1.20;;;23.30;63.40;;;;;;5053189;28;20587;-76
2022/08/28 02:42:04;;;;;;;1.20;1.20;;;23.40;64.60;;;;;;5052653;28;20413;-76
2022/08/28 02:44:30;;;;;;;1.20;1.10;;;23.30;64.10;;;;;;5055630;28;20494;-76
2022/08/28 02:46:56;;;;;;;1.20;1.13;;;23.10;65.60;;;;;;5064373;28;20420;-75
2022/08/28 02:49:22;;;;;;;1.20;1.10;;;22.80;68.20;;;;;;5072888;28;20223;-73
2022/08/28 02:51:49;;;;;;;1.20;1.10;;;22.80;69.30;;;;;;5066747;28;20220;-73
2022/08/28 02:54:15;;;;;;;1.20;1.17;;;22.80;69.20;;;;;;5052606;28;20429;-73
2022/08/28 02:56:40;;;;;;;1.20;1.20;;;22.60;70.00;;;;;;5060857;28;20467;-73
2022/08/28 02:59:07;;;;;;;1.20;1.10;;;22.40;71.50;;;;;;5051513;28;20430;-73
2022/08/28 03:01:33;;;;;;;1.23;1.20;;;22.40;72.90;;;;;;5050183;28;20190;-73
2022/08/28 03:04:01;;;;;;;1.20;1.10;;;22.40;71.60;;;;;;5060407;28;20415;-73
2022/08/28 03:06:28;;;;;;;1.20;1.10;;;22.20;74.00;;;;;;5032866;28;20955;-73
2022/08/28 03:08:54;;;;;;;1.20;1.17;;;22.50;73.00;;;;;;5038501;28;20440;-76
2022/08/28 03:11:20;;;;;;;1.20;1.00;;;22.60;70.40;;;;;;5058684;28;20528;-73
2022/08/28 03:13:46;;;;;;;1.20;1.10;;;22.50;71.80;;;;;;5060022;28;20182;-73
2022/08/28 03:16:11;;;;;;;1.20;1.20;;;22.40;73.20;;;;;;5070393;28;20732;-72
2022/08/28 03:18:38;;;;;;;1.20;1.10;;;22.10;74.30;;;;;;5065757;28;20452;-73
2022/08/28 03:21:04;;;;;;;1.20;1.10;;;22.00;75.00;;;;;;5062463;28;20249;-73
2022/08/28 03:23:30;;;;;;;1.20;1.20;;;22.00;76.80;;;;;;5058588;28;20877;-73
2022/08/28 03:25:58;;;;;;;1.20;1.10;;;22.20;74.80;;;;;;5057288;28;20183;-73
2022/08/28 03:28:25;;;;;;;1.20;1.20;;;22.20;73.90;;;;;;5057087;28;20463;-73
2022/08/28 03:30:51;;;;;;;1.20;1.10;;;22.30;73.60;;;;;;5063278;28;20455;-73
2022/08/28 03:33:17;;;;;;;1.20;1.07;;;22.40;73.60;;;;;;5071607;28;21021;-73
2022/08/28 03:35:43;;;;;;;1.20;1.10;;;22.00;75.00;;;;;;5071615;28;20178;-73
2022/08/28 03:38:10;;;;;;;1.20;1.20;;;22.30;74.50;;;;;;5066928;28;20450;-73
2022/08/28 03:40:39;;;;;;;1.20;1.20;;;22.40;72.70;;;;;;5063283;28;20261;-73
2022/08/28 03:43:05;;;;;;;1.20;1.20;;;22.50;71.60;;;;;;5063925;28;20417;-74
2022/08/28 03:45:30;;;;;;;1.20;1.20;;;22.70;70.80;;;;;;5051596;28;20948;-72
2022/08/28 03:47:56;;;;;;;1.20;1.10;;;22.90;69.70;;;;;;5051524;28;20209;-73
2022/08/28 03:50:21;;;;;;;1.20;1.13;;;22.90;68.00;;;;;;5058619;28;20182;-73
2022/08/28 03:52:47;;;;;;;1.20;1.20;;;22.80;68.10;;;;;;5065580;28;20184;-73
2022/08/28 03:55:13;;;;;;;1.20;1.20;;;23.00;68.20;;;;;;5071201;28;20219;-73
2022/08/28 03:57:39;;;;;;;1.20;1.10;;;23.10;66.40;;;;;;5071469;28;20435;-73
2022/08/28 04:00:08;;;;;;;1.20;1.20;;;23.20;66.90;;;;;;5058146;28;20186;-73
2022/08/28 04:02:33;;;;;;;1.20;1.00;;;23.20;67.20;;;;;;5061594;28;20431;-73
2022/08/28 04:04:59;;;;;;;1.20;1.10;;;23.20;67.20;;;;;;5061760;28;20427;-76
2022/08/28 04:07:24;;;;;;;1.20;1.10;;;23.10;67.00;;;;;;5070328;28;20231;-75
2022/08/28 04:09:50;;;;;;;1.20;1.10;;;23.20;66.60;;;;;;5056743;28;20245;-75
2022/08/28 04:12:16;;;;;;;1.20;1.10;;;23.30;65.70;;;;;;5062373;28;20208;-76
2022/08/28 04:14:41;;;;;;;1.20;1.20;;;23.20;66.50;;;;;;5062546;28;20188;-74
2022/08/28 04:17:07;;;;;;;1.20;1.10;;;23.20;66.50;;;;;;5055732;28;20202;-73
2022/08/28 04:19:32;;;;;;;1.20;1.10;;;23.30;65.60;;;;;;5059601;28;20193;-74
2022/08/28 04:21:59;;;;;;;1.27;1.20;;;23.30;65.70;;;;;;5058771;28;20191;-74
2022/08/28 04:24:24;;;;;;;1.20;1.10;;;23.30;64.50;;;;;;5051065;28;20238;-74
2022/08/28 04:26:50;;;;;;;1.20;1.20;;;23.20;65.00;;;;;;5051151;28;20474;-74
2022/08/28 04:29:17;;;;;;;1.20;1.20;;;23.20;66.20;;;;;;5050997;28;20198;-73
2022/08/28 04:31:42;;;;;;;1.20;1.20;;;23.20;65.40;;;;;;5057824;28;20287;-74
2022/08/28 04:34:09;;;;;;;1.20;1.10;;;23.20;65.60;;;;;;5059843;28;20451;-73
2022/08/28 04:36:35;;;;;;;1.20;1.00;;;23.30;64.50;;;;;;5059006;28;20184;-75
2022/08/28 04:39:04;;;;;;;1.20;1.20;;;23.20;64.90;;;;;;5067451;28;20433;-75
2022/08/28 04:41:30;;;;;;;1.20;1.10;;;23.10;63.50;;;;;;5060860;28;20463;-74
2022/08/28 04:43:56;;;;;;;1.20;1.10;;;23.00;65.60;;;;;;5062292;28;20926;-74
2022/08/28 04:46:23;;;;;;;1.20;1.10;;;23.00;65.00;;;;;;5070947;28;20587;-74
2022/08/28 04:48:49;;;;;;;1.20;1.10;;;23.10;65.70;;;;;;5061117;28;20599;-74
2022/08/28 04:51:14;;;;;;;1.30;1.20;;;23.20;65.00;;;;;;5058227;28;20945;-74
2022/08/28 04:53:41;;;;;;;1.20;1.13;;;23.10;64.90;;;;;;5057853;28;20723;-73
2022/08/28 04:56:12;;;;;;;1.20;1.20;;;23.10;66.20;;;;;;5059604;28;20262;-74
2022/08/28 04:58:38;;;;;;;1.20;1.10;;;23.10;65.30;;;;;;5064200;28;20954;-74
2022/08/28 05:01:11;;;;;;;1.20;1.10;;;23.00;65.50;;;;;;5062145;28;20494;-73
2022/08/28 05:03:38;;;;;;;1.20;1.20;;;23.00;65.60;;;;;;5056387;28;20440;-74
2022/08/28 05:06:04;;;;;;;1.20;1.13;;;23.10;65.50;;;;;;5062306;28;20419;-74
2022/08/28 05:08:30;;;;;;;1.20;1.20;;;23.00;64.60;;;;;;5051202;28;20812;-74
2022/08/28 05:10:56;;;;;;;1.20;1.10;;;22.70;67.40;;;;;;5066099;28;20882;-74
2022/08/28 05:13:24;;;;;;;1.20;1.10;;;22.50;67.80;;;;;;5060579;28;20433;-74
2022/08/28 05:15:51;;;;;;;1.20;1.20;;;22.40;69.50;;;;;;5056507;28;20890;-74
2022/08/28 05:18:19;;;;;;;1.20;1.10;;;22.50;69.90;;;;;;5054455;28;20432;-74
2022/08/28 05:20:47;;;;;;;1.20;1.20;;;22.50;69.10;;;;;;5054097;28;20512;-74
2022/08/28 05:23:14;;;;;;;1.20;1.17;;;22.30;70.20;;;;;;5054874;28;20435;-74
2022/08/28 05:25:42;;;;;;;1.20;1.10;;;22.00;73.60;;;;;;5065649;28;20419;-75
2022/08/28 05:28:09;;;;;;;1.27;1.20;;;22.40;71.40;;;;;;5066823;28;20530;-74
2022/08/28 05:30:36;;;;;;;1.20;1.20;;;22.70;69.80;;;;;;5065584;28;20503;-75
2022/08/28 05:33:02;;;;;;;1.20;1.17;;;23.00;67.60;;;;;;5073864;28;20411;-74
2022/08/28 05:35:31;;;;;;;1.20;1.20;;;23.10;67.40;;;;;;5061853;28;20437;-74
2022/08/28 05:37:57;;;;;;;1.20;1.20;;;23.10;63.70;;;;;;5070140;28;20840;-73
2022/08/28 05:40:23;;;;;;;1.30;1.20;;;22.90;66.50;;;;;;5074085;28;20404;-73
2022/08/28 05:42:49;;;;;;;1.20;1.20;;;23.00;66.00;;;;;;5066162;28;20212;-74
2022/08/28 05:45:16;;;;;;;1.27;1.20;;;23.20;64.50;;;;;;5057220;28;20210;-73
2022/08/28 05:47:42;;;;;;;1.20;1.20;;;23.20;64.70;;;;;;5063408;28;20471;-73
2022/08/28 05:50:12;;;;;;;1.20;1.10;;;23.30;64.40;;;;;;5056366;28;20406;-73
2022/08/28 05:52:41;;;;;;;1.20;1.13;;;23.20;63.70;;;;;;5062749;28;20463;-73
2022/08/28 05:55:08;;;;;;;1.30;1.20;;;22.90;66.10;;;;;;5063926;28;20912;-73
2022/08/28 05:57:34;;;;;;;1.20;1.20;;;23.10;65.70;;;;;;5064959;28;20459;-74
2022/08/28 06:00:01;;;;;;;1.20;1.10;;;23.20;65.10;;;;;;5065246;28;20778;-73
2022/08/28 06:02:26;;;;;;;1.20;1.17;;;23.20;65.20;;;;;;5073298;28;20416;-74
2022/08/28 06:04:53;;;;;;;1.30;1.23;;;23.10;63.80;;;;;;5073493;28;20414;-75
2022/08/28 06:07:19;;;;;;;1.20;1.20;;;23.10;65.60;;;;;;5068523;28;20189;-74
2022/08/28 06:09:45;;;;;;;1.20;1.10;;;23.10;65.70;;;;;;5061663;28;20421;-73
2022/08/28 06:12:11;;;;;;;1.20;1.20;;;23.20;64.80;;;;;;5052329;28;20212;-75
2022/08/28 06:14:37;;;;;;;1.20;1.20;;;23.30;64.90;;;;;;5059575;28;20285;-75
2022/08/28 06:17:04;;;;;;;1.20;1.13;;;23.40;64.20;;;;;;5054808;28;20957;-74
2022/08/28 06:19:32;;;;;;;1.20;1.03;;;23.10;65.60;;;;;;5060602;28;20464;-74
2022/08/28 06:22:01;;;;;;;1.20;1.10;;;23.30;64.70;;;;;;5058512;28;20436;-74
2022/08/28 06:24:29;;;;;;;1.20;1.20;;;23.40;64.20;;;;;;5057139;28;20413;-74
2022/08/28 06:26:56;;;;;;;1.20;1.20;;;23.50;64.00;;;;;;5072150;28;20401;-74
2022/08/28 06:29:21;;;;;;;1.20;1.20;;;23.60;62.60;;;;;;5073266;28;20906;-73
2022/08/28 06:31:52;;;;;;;1.20;1.20;;;23.70;62.90;;;;;;5062377;28;20461;-74
2022/08/28 06:34:18;;;;;;;1.20;1.10;;;23.80;61.10;;;;;;5064323;28;20174;-74
2022/08/28 06:36:44;;;;;;;1.20;1.10;;;23.80;61.40;;;;;;5069957;28;20429;-74
2022/08/28 06:39:12;;;;;;;1.20;1.13;;;23.80;61.70;;;;;;5062719;28;20202;-75
2022/08/28 06:41:41;;;;;;;1.20;1.10;;;23.70;62.20;;;;;;5065506;28;20658;-74
2022/08/28 06:44:09;;;;;;;1.20;1.20;;;23.70;61.20;;;;;;5056377;28;20520;-74
2022/08/28 06:46:35;;;;;;;1.20;1.20;;;23.70;61.20;;;;;;5059583;28;20987;-74
2022/08/28 06:49:02;;;;;;;1.20;1.00;;;23.70;61.20;;;;;;5054190;28;20465;-74
2022/08/28 06:51:28;;;;;;;1.20;1.10;;;23.80;59.90;;;;;;5061470;28;20245;-74
2022/08/28 06:53:53;;;;;;;1.30;1.30;;;23.80;60.50;;;;;;5049915;28;20453;-74
2022/08/28 06:56:20;;;;;;;1.20;1.10;;;23.70;61.20;;;;;;5063328;28;20172;-74
2022/08/28 06:58:48;;;;;;;1.20;1.10;;;23.80;61.40;;;;;;5072429;28;20191;-74
2022/08/28 07:01:21;;;;;;;1.20;1.10;;;23.80;61.40;;;;;;5070821;28;20424;-73
2022/08/28 07:03:47;;;;;;;1.20;1.10;;;23.80;61.40;;;;;;5068896;28;20410;-74
2022/08/28 07:06:14;;;;;;;1.20;1.10;;;23.80;60.20;;;;;;5063977;28;20492;-74
2022/08/28 07:08:42;;;;;;;1.20;1.10;;;23.80;58.70;;;;;;5065925;28;20434;-74
2022/08/28 07:11:20;;;;;;;1.20;1.10;;;23.80;61.40;;;;;;5071999;28;20457;-74
2022/08/28 07:13:47;;;;;;;1.20;1.10;;;24.00;60.20;;;;;;5048282;28;20440;-74
2022/08/28 07:16:14;;;;;;;1.23;1.17;;;24.00;59.60;;;;;;5062091;28;20417;-75
2022/08/28 07:18:40;;;;;;;1.20;1.17;;;24.10;57.80;;;;;;5070177;28;20809;-74
2022/08/28 07:21:06;;;;;;;1.20;1.20;;;24.30;57.60;;;;;;5059984;28;20422;-74
2022/08/28 07:23:37;;;;;;;1.27;1.20;;;24.30;59.90;;;;;;5062997;28;20431;-74
2022/08/28 07:26:08;;;;;;;1.20;1.10;;;24.40;60.50;;;;;;5059924;28;20212;-74
2022/08/28 07:28:35;;;;;;;1.20;1.10;;;24.40;58.50;;;;;;5063721;28;20437;-75
2022/08/28 07:31:04;;;;;;;1.20;1.10;;;24.10;58.60;;;;;;5060742;28;20512;-74
2022/08/28 07:33:31;;;;;;;1.20;1.10;;;23.80;59.30;;;;;;5063157;28;20406;-74
2022/08/28 07:35:57;;;;;;;1.20;1.10;;;24.00;60.00;;;;;;5071833;28;20473;-75
2022/08/28 07:38:24;;;;;;;1.20;1.20;;;24.20;59.90;;;;;;5065279;28;20451;-74
2022/08/28 07:40:50;;;;;;;1.30;1.20;;;24.40;58.00;;;;;;5057725;28;20408;-75
2022/08/28 07:46:04;;;;;;;1.27;1.20;;;24.20;57.30;;;;;;5050656;28;20410;-74
2022/08/28 07:48:29;;;;;;;1.20;1.20;;;24.30;58.10;;;;;;5056350;28;20996;-73
2022/08/28 07:50:55;;;;;;;1.20;1.10;;;23.80;57.60;;;;;;5059261;28;20497;-73
2022/08/28 07:53:21;;;;;;;1.27;1.20;;;23.40;59.80;;;;;;5070853;28;20211;-73
2022/08/28 07:55:50;;;;;;;1.20;1.10;;;23.90;60.10;;;;;;5071578;28;20250;-73
2022/08/28 07:58:16;;;;;;;1.23;1.20;;;24.30;57.70;;;;;;5061221;28;20194;-73
2022/08/28 08:00:42;;;;;;;1.20;1.20;;;24.10;55.60;;;;;;5057618;28;20414;-73
2022/08/28 08:03:08;;;;;;;1.23;1.17;;;24.10;56.70;;;;;;5058297;28;20956;-73
2022/08/28 08:05:33;;;;;;;1.20;1.10;;;24.40;55.70;;;;;;5064373;28;20223;-73
2022/08/28 08:07:59;;;;;;;1.27;1.20;;;24.70;55.00;;;;;;5065395;28;20202;-73
2022/08/28 08:10:25;;;;;;;1.20;1.10;;;24.30;55.20;;;;;;5062930;28;20248;-73
2022/08/28 08:12:51;;;;;;;1.20;1.10;;;24.60;56.50;;;;;;5070987;28;20171;-73
2022/08/28 08:15:17;;;;;;;1.20;1.20;;;24.90;53.30;;;;;;5061117;28;20171;-74
2022/08/28 08:17:43;;;;;;;1.20;1.10;;;24.60;52.20;;;;;;5051485;28;20978;-76
2022/08/28 08:20:10;;;;;;;1.20;1.10;;;24.30;54.10;;;;;;5057445;28;20467;-76
2022/08/28 08:22:36;;;;;;;1.20;1.00;;;24.60;55.40;;;;;;5059072;28;20791;-77
2022/08/28 08:25:04;;;;;;;1.20;1.03;;;24.90;53.60;;;;;;5057251;28;20452;-77
2022/08/28 08:27:30;;;;;;;1.20;1.17;;;25.10;52.10;;;;;;5062949;28;20986;-77
2022/08/28 08:29:56;;;;;;;1.20;1.10;;;25.20;52.10;;;;;;5072142;28;20407;-77
2022/08/28 08:32:22;;;;;;;1.20;1.20;;;25.20;51.00;;;;;;5055298;28;20951;-73
2022/08/28 08:34:48;;;;;;;1.30;1.20;;;25.30;53.20;;;;;;5062617;28;20401;-73
2022/08/28 08:37:14;;;;;;;1.20;1.10;;;25.50;51.70;;;;;;5053622;28;20179;-73
2022/08/28 08:39:41;;;;;;;1.30;1.20;;;25.70;51.50;;;;;;5057907;28;20436;-73
2022/08/28 08:42:26;;;;;;;1.23;1.20;;;25.70;49.30;;;;;;5058544;28;20429;-73
2022/08/28 08:44:55;;;;;;;1.20;1.00;;;25.60;49.40;;;;;;5030873;28;20500;-72
2022/08/28 08:47:40;;;;;;;1.20;1.10;;;25.70;49.70;;;;;;5050806;28;20808;-72
2022/08/28 08:50:15;;;;;;;1.20;1.10;;;24.60;51.60;;;;;;5051259;28;20442;-72
2022/08/28 08:53:09;;;;;;;1.20;1.10;;;24.70;53.40;;;;;;5059017;28;20453;-73
2022/08/28 08:55:46;;;;;;;1.20;1.10;;;25.20;53.10;;;;;;5049709;28;20409;-72
2022/08/28 08:58:29;;;;;;;1.30;1.20;;;25.20;52.70;;;;;;5060064;28;20450;-73
2022/08/28 09:01:03;;;;;;;1.20;1.20;;;25.40;51.00;;;;;;5059795;28;20429;-73
2022/08/28 09:03:55;;;;;;;1.20;1.10;;;25.50;49.60;;;;;;5046496;28;20437;-73
2022/08/28 09:06:40;;;;;;;1.23;1.10;;;25.40;50.00;;;;;;5058689;28;20797;-73
2022/08/28 09:09:15;;;;;;;1.20;1.10;;;25.20;50.50;;;;;;5059959;28;20508;-72
2022/08/28 09:11:52;;;;;;;1.20;1.10;;;25.10;51.20;;;;;;5060955;28;21063;-73
2022/08/28 09:14:23;;;;;;;1.30;1.10;;;25.50;50.10;;;;;;5057526;28;20483;-73
2022/08/28 09:16:49;;;;;;;1.20;1.10;;;25.70;47.20;;;;;;5054520;28;20430;-73
2022/08/28 09:19:19;;;;;;;1.30;1.20;;;25.80;50.30;;;;;;5055088;28;20482;-73
2022/08/28 09:21:46;;;;;;;1.30;1.20;;;25.90;46.40;;;;;;5058411;28;20463;-72
2022/08/28 09:24:31;;;;;;;1.20;1.10;;;25.50;47.40;;;;;;5059621;28;20447;-72
2022/08/28 09:27:01;;;;;;;1.20;1.10;;;25.70;47.10;;;;;;5056925;28;20426;-72
2022/08/28 09:29:31;;;;;;;1.20;1.10;;;24.90;50.40;;;;;;5046311;28;20449;-72
2022/08/28 09:32:13;;;;;;;1.20;1.20;;;24.90;50.90;;;;;;5057626;28;20458;-73
2022/08/28 09:35:01;;;;;;;1.30;1.20;;;24.50;50.50;;;;;;5059472;28;20516;-72
2022/08/28 09:37:31;;;;;;;1.20;1.00;;;24.70;53.60;;;;;;5054702;28;20460;-73
2022/08/28 09:40:18;;;;;;;1.30;1.20;;;24.90;46.40;;;;;;5062315;28;20410;-73
2022/08/28 09:46:15;;;;;;;1.20;1.20;;;25.00;50.60;;;;;;5049847;28;20808;-72
2022/08/28 09:48:43;;;;;;;1.20;1.10;;;25.70;44.00;;;;;;5050782;28;20471;-72
2022/08/28 09:51:11;;;;;;;1.20;1.10;;;25.50;43.80;;;;;;5062606;28;20473;-72
2022/08/28 09:53:55;;;;;;;1.20;1.10;;;24.60;46.10;;;;;;5058427;28;20425;-72
2022/08/28 09:56:39;;;;;;;1.20;1.10;;;24.80;46.10;;;;;;5042105;28;20411;-74
2022/08/28 09:59:20;;;;;;;1.20;1.10;;;25.70;47.80;;;;;;5051229;28;20809;-73
2022/08/28 10:01:59;;;;;;;1.20;1.10;;;26.20;46.30;;;;;;5053186;28;20442;-72
2022/08/28 10:04:46;;;;;;;1.20;1.10;;;26.90;45.10;;;;;;5071085;28;20455;-72
2022/08/28 10:07:27;;;;;;;1.30;1.20;;;26.10;41.90;;;;;;5043848;28;20940;-72
2022/08/28 10:10:02;;;;;;;1.27;1.20;;;25.10;49.30;;;;;;5037015;28;20984;-72
2022/08/28 10:12:43;;;;;;;1.23;1.20;;;25.50;47.60;;;;;;5041502;28;20458;-72
2022/08/28 10:15:23;;;;;;;1.20;1.20;;;25.30;45.70;;;;;;5041258;28;20411;-72
2022/08/28 10:18:10;;;;;;;1.20;1.10;;;24.90;46.70;;;;;;5041508;28;20522;-72
2022/08/28 10:20:36;;;;;;;1.20;1.10;;;25.00;50.00;;;;;;5033679;28;20468;-72
2022/08/28 10:23:27;;;;;;;1.20;1.20;;;24.80;47.10;;;;;;5039732;28;20937;-71
2022/08/28 10:26:17;;;;;;;1.20;1.10;;;24.60;48.50;;;;;;5047092;28;20638;-72
2022/08/28 10:29:10;;;;;;;1.20;1.13;;;25.10;50.20;;;;;;5044476;28;20438;-72
2022/08/28 10:31:50;;;;;;;1.20;1.10;;;25.90;46.90;;;;;;5033145;28;20458;-72
2022/08/28 10:34:45;;;;;;;1.20;1.10;;;26.50;46.50;;;;;;5048147;28;20438;-72
2022/08/28 10:37:41;;;;;;;1.20;1.10;;;26.40;45.60;;;;;;5046353;28;20466;-72
2022/08/28 10:40:22;;;;;;;1.20;1.10;;;26.50;44.30;;;;;;5041162;28;20453;-72
2022/08/28 10:42:59;;;;;;;1.30;1.20;;;27.00;41.90;;;;;;5032903;28;20457;-72
2022/08/28 10:45:30;;;;;;;1.20;1.10;;;27.40;38.10;;;;;;5040740;28;20458;-72
2022/08/28 10:48:03;;;;;;;1.20;1.10;;;27.70;37.80;;;;;;5041117;28;20469;-72
2022/08/28 10:50:37;;;;;;;1.20;1.10;;;27.80;37.20;;;;;;5041067;28;20463;-72
2022/08/28 10:53:08;;;;;;;1.20;1.10;;;27.80;36.30;;;;;;5040410;28;20925;-71
2022/08/28 10:55:41;;;;;;;1.27;1.10;;;27.60;38.00;;;;;;5041567;28;20451;-71
2022/08/28 10:58:09;;;;;;;1.20;1.10;;;27.60;36.20;;;;;;5043579;28;20446;-72
2022/08/28 11:00:36;;;;;;;1.20;1.10;;;27.60;37.20;;;;;;5044061;28;20422;-72
2022/08/28 11:03:11;;;;;;;1.20;1.20;;;27.70;35.50;;;;;;5036578;28;20419;-72
2022/08/28 11:05:41;;;;;;;1.20;1.10;;;28.20;34.60;;;;;;5043840;28;20413;-72
2022/08/28 11:08:23;;;;;;;1.20;1.10;;;28.90;34.00;;;;;;5043212;28;20457;-71
2022/08/28 11:10:51;;;;;;;1.27;1.20;;;28.70;34.30;;;;;;5044184;28;20467;-72
2022/08/28 11:13:52;;;;;;;1.20;1.10;;;28.40;34.70;;;;;;5041806;28;20954;-72
2022/08/28 11:16:23;;;;;;;1.20;1.10;;;28.50;35.50;;;;;;5042887;28;20940;-72
2022/08/28 11:19:13;;;;;;;1.20;1.10;;;28.70;33.60;;;;;;5043367;28;20485;-71
2022/08/28 11:22:14;;;;;;;1.20;1.10;;;29.40;36.00;;;;;;5042689;28;20446;-72
2022/08/28 11:24:42;;;;;;;1.20;1.10;;;30.90;29.50;;;;;;5036064;28;21022;-72
2022/08/28 11:27:34;;;;;;;1.20;1.00;;;31.50;28.70;;;;;;5044549;28;20418;-72
2022/08/28 11:30:08;;;;;;;1.20;1.00;;;30.90;26.50;;;;;;5040269;28;20787;-72
2022/08/28 11:32:36;;;;;;;1.20;1.10;;;29.90;28.70;;;;;;5047294;28;20562;-71
2022/08/28 11:35:11;;;;;;;1.20;1.10;;;29.40;30.00;;;;;;5039513;28;20445;-72
2022/08/28 11:37:43;;;;;;;1.20;1.00;;;29.40;29.30;;;;;;5048272;28;20449;-71
2022/08/28 11:40:17;;;;;;;1.20;1.10;;;29.00;30.30;;;;;;5048173;28;20421;-72
2022/08/28 11:42:47;;;;;;;1.20;1.10;;;29.40;32.40;;;;;;5058170;28;20432;-72
2022/08/28 11:45:47;;;;;;;1.20;1.00;;;30.00;30.80;;;;;;5052934;28;20937;-72
2022/08/28 11:48:27;;;;;;;1.20;1.00;;;30.20;31.00;;;;;;5055964;28;20465;-72
2022/08/28 11:51:05;;;;;;;1.20;1.10;;;29.80;31.50;;;;;;5044476;28;20485;-72
2022/08/28 11:53:58;;;;;;;1.20;1.03;;;29.70;31.30;;;;;;5048677;28;20422;-74
2022/08/28 11:56:46;;;;;;;1.20;1.10;;;29.90;30.80;;;;;;5044092;28;20425;-71
2022/08/28 11:59:36;;;;;;;1.20;1.00;;;29.40;30.10;;;;;;5054322;28;20433;-71
2022/08/28 12:02:30;;;;;;;1.20;1.10;;;29.00;31.10;;;;;;5044570;28;20468;-72
2022/08/28 12:04:56;;;;;;;1.20;1.10;;;29.80;29.10;;;;;;5040747;28;20422;-72
2022/08/28 12:07:24;;;;;;;1.20;1.07;;;30.90;28.20;;;;;;5040355;28;20445;-72
2022/08/28 12:09:51;;;;;;;1.20;1.00;;;31.60;28.90;;;;;;5045716;28;20180;-72
2022/08/28 12:12:20;;;;;;;1.20;0.90;;;32.60;25.70;;;;;;5053237;28;20620;-72
2022/08/28 12:14:45;;;;;;;1.20;1.00;;;31.80;26.50;;;;;;5053729;28;20439;-73
2022/08/28 12:17:14;;;;;;;1.20;0.90;;;32.60;25.00;;;;;;5046926;28;20791;-74
2022/08/28 12:19:49;;;;;;;1.20;1.00;;;33.60;23.70;;;;;;5052985;28;20195;-74
2022/08/28 12:22:18;;;;;;;1.20;0.90;;;34.50;23.20;;;;;;5065680;28;20483;-74
2022/08/28 12:24:53;;;;;;;1.20;0.90;;;34.80;21.60;;;;;;5047349;28;20427;-74
2022/08/28 12:27:18;;;;;;;1.20;0.90;;;35.10;20.80;;;;;;5056535;28;20433;-73
2022/08/28 12:29:51;;;;;;;1.20;0.90;;;34.90;20.30;;;;;;5056518;28;20438;-73
2022/08/28 12:32:26;;;;;;;1.20;1.00;;;34.80;20.90;;;;;;5063190;28;20208;-73
2022/08/28 12:34:57;;;;;;;1.20;0.90;;;34.30;21.20;;;;;;5064631;28;20409;-73
2022/08/28 12:37:26;;;;;;;1.20;0.90;;;33.70;21.20;;;;;;5058335;28;20418;-73
2022/08/28 12:39:55;;;;;;;1.20;0.90;;;33.30;21.70;;;;;;5050188;28;20526;-74
2022/08/28 12:42:26;;;;;;;1.20;0.90;;;32.30;24.00;;;;;;5037820;28;20433;-73
2022/08/28 12:44:51;;;;;;;1.20;0.90;;;31.80;24.30;;;;;;5048841;28;20469;-74
2022/08/28 12:47:21;;;;;;;1.20;1.07;;;31.50;26.00;;;;;;5038077;28;20522;-73
2022/08/28 12:49:47;;;;;;;1.20;1.00;;;31.30;24.70;;;;;;5050362;28;20176;-74
2022/08/28 12:52:17;;;;;;;1.20;1.10;;;30.50;25.80;;;;;;5047368;28;20877;-72
2022/08/28 12:54:44;;;;;;;1.20;1.00;;;30.20;27.10;;;;;;5045603;28;20187;-72
2022/08/28 12:57:15;;;;;;;1.20;1.00;;;30.40;26.90;;;;;;5042301;28;20437;-72
2022/08/28 12:59:44;;;;;;;1.20;1.10;;;30.20;25.50;;;;;;5049480;28;20430;-72
2022/08/28 13:02:29;;;;;;;1.20;1.00;;;29.90;27.30;;;;;;5049694;28;20426;-72
2022/08/28 13:05:08;;;;;;;1.30;1.20;;;29.80;28.60;;;;;;5048241;28;20421;-72
2022/08/28 13:07:44;;;;;;;1.20;1.00;;;29.90;27.10;;;;;;5032137;28;20987;-72
2022/08/28 13:10:32;;;;;;;1.20;1.10;;;29.80;27.40;;;;;;5050154;28;20414;-72
2022/08/28 13:13:05;;;;;;;1.20;1.10;;;29.30;28.20;;;;;;5038701;28;20429;-71